sensor_id;sensor_type;location;lat;lon;timestamp;pressure;altitude;pressure_sealevel;temperature;humidity
69848;BME280;57143;55.940;37.496;2023-03-25T00:01:41;93257.94;;;5.26;100.00
69848;BME280;57143;55.940;37.496;2023-03-25T00:04:09;93287.09;;;5.28;100.00
69848;BME280;57143;55.940;37.496;2023-03-25T00:06:36;93276.06;;;5.45;100.00
69848;BME280;57143;55.940;37.496;2023-03-25T00:09:03;93266.78;;;5.15;100.00
69848;BME280;57143;55.940;37.496;2023-03-25T00:11:31;93238.31;;;5.10;100.00
69848;BME280;57143;55.940;37.496;2023-03-25T00:13:58;93288.69;;;5.44;100.00
69848;BME280;57143;55.940;37.496;2023-03-25T00:16:25;93287.72;;;5.37;100.00
69848;BME280;57143;55.940;37.496;2023-03-25T00:18:54;93220.28;;;4.83;100.00
69848;BME280;57143;55.940;37.496;2023-03-25T00:21:24;93299.19;;;5.49;100.00
69848;BME280;57143;55.940;37.496;2023-03-25T00:23:51;93304.41;;;5.58;100.00
69848;BME280;57143;55.940;37.496;2023-03-25T00:26:18;93305.00;;;5.51;100.00
69848;BME280;57143;55.940;37.496;2023-03-25T00:28:45;93324.91;;;5.50;100.00
69848;BME280;57143;55.940;37.496;2023-03-25T00:31:13;93274.38;;;5.13;100.00
69848;BME280;57143;55.940;37.496;2023-03-25T00:33:40;93363.91;;;5.60;100.00
69848;BME280;57143;55.940;37.496;2023-03-25T00:36:10;93325.53;;;5.20;100.00
69848;BME280;57143;55.940;37.496;2023-03-25T00:38:39;93380.00;;;5.60;100.00
69848;BME280;57143;55.940;37.496;2023-03-25T00:41:12;93402.63;;;5.59;100.00
69848;BME280;57143;55.940;37.496;2023-03-25T00:43:42;93424.75;;;5.56;100.00
69848;BME280;57143;55.940;37.496;2023-03-25T00:46:10;93364.47;;;5.02;100.00
69848;BME280;57143;55.940;37.496;2023-03-25T00:48:37;93443.66;;;5.35;100.00
69848;BME280;57143;55.940;37.496;2023-03-25T00:51:05;93450.72;;;5.52;100.00
69848;BME280;57143;55.940;37.496;2023-03-25T00:53:36;93473.28;;;5.51;100.00
69848;BME280;57143;55.940;37.496;2023-03-25T00:56:05;93482.13;;;5.51;100.00
69848;BME280;57143;55.940;37.496;2023-03-25T00:58:32;93480.56;;;5.50;100.00
69848;BME280;57143;55.940;37.496;2023-03-25T01:01:00;93496.34;;;5.52;100.00
69848;BME280;57143;55.940;37.496;2023-03-25T01:03:27;93488.06;;;5.33;100.00
69848;BME280;57143;55.940;37.496;2023-03-25T01:05:55;93492.88;;;5.51;100.00
69848;BME280;57143;55.940;37.496;2023-03-25T01:08:23;93501.16;;;5.46;100.00
69848;BME280;57143;55.940;37.496;2023-03-25T01:10:55;93508.84;;;5.48;100.00
69848;BME280;57143;55.940;37.496;2023-03-25T01:13:22;93520.16;;;5.53;100.00
69848;BME280;57143;55.940;37.496;2023-03-25T01:15:50;93531.34;;;5.55;100.00
69848;BME280;57143;55.940;37.496;2023-03-25T01:18:17;93544.31;;;5.53;100.00
69848;BME280;57143;55.940;37.496;2023-03-25T01:20:44;93556.94;;;5.53;100.00
69848;BME280;57143;55.940;37.496;2023-03-25T01:23:11;93487.03;;;5.01;100.00
69848;BME280;57143;55.940;37.496;2023-03-25T01:25:39;93531.09;;;5.12;100.00
69848;BME280;57143;55.940;37.496;2023-03-25T01:28:08;93577.31;;;5.54;100.00
69848;BME280;57143;55.940;37.496;2023-03-25T01:30:35;93553.81;;;5.39;100.00
69848;BME280;57143;55.940;37.496;2023-03-25T01:33:03;93553.47;;;5.40;100.00
69848;BME280;57143;55.940;37.496;2023-03-25T01:35:30;93581.31;;;5.48;100.00
69848;BME280;57143;55.940;37.496;2023-03-25T01:37:57;93578.19;;;5.58;100.00
69848;BME280;57143;55.940;37.496;2023-03-25T01:40:24;93513.44;;;5.11;100.00
69848;BME280;57143;55.940;37.496;2023-03-25T01:42:51;93590.06;;;5.57;100.00
69848;BME280;57143;55.940;37.496;2023-03-25T01:45:24;93574.19;;;5.52;100.00
69848;BME280;57143;55.940;37.496;2023-03-25T01:47:57;93593.19;;;5.59;100.00
69848;BME280;57143;55.940;37.496;2023-03-25T01:50:26;93595.88;;;5.59;100.00
69848;BME280;57143;55.940;37.496;2023-03-25T01:52:56;93558.50;;;5.42;100.00
69848;BME280;57143;55.940;37.496;2023-03-25T01:55:24;93595.09;;;5.58;100.00
69848;BME280;57143;55.940;37.496;2023-03-25T01:57:55;93584.47;;;5.50;100.00
69848;BME280;57143;55.940;37.496;2023-03-25T02:00:26;93575.72;;;5.65;100.00
69848;BME280;57143;55.940;37.496;2023-03-25T02:02:56;93560.88;;;5.55;100.00
69848;BME280;57143;55.940;37.496;2023-03-25T02:05:31;93538.38;;;5.48;100.00
69848;BME280;57143;55.940;37.496;2023-03-25T02:08:01;93557.84;;;5.69;100.00
69848;BME280;57143;55.940;37.496;2023-03-25T02:10:30;93570.13;;;5.70;100.00
69848;BME280;57143;55.940;37.496;2023-03-25T02:12:59;93571.84;;;5.74;100.00
69848;BME280;57143;55.940;37.496;2023-03-25T02:15:33;93577.97;;;5.75;100.00
69848;BME280;57143;55.940;37.496;2023-03-25T02:18:29;93558.19;;;5.67;100.00
69848;BME280;57143;55.940;37.496;2023-03-25T02:21:38;93579.56;;;5.76;100.00
69848;BME280;57143;55.940;37.496;2023-03-25T02:27:32;93546.31;;;5.68;100.00
69848;BME280;57143;55.940;37.496;2023-03-25T02:30:35;93556.94;;;5.77;100.00
69848;BME280;57143;55.940;37.496;2023-03-25T02:33:40;93488.75;;;5.54;100.00
69848;BME280;57143;55.940;37.496;2023-03-25T02:39:31;93474.63;;;5.69;100.00
69848;BME280;57143;55.940;37.496;2023-03-25T02:42:10;93511.63;;;6.00;100.00
69848;BME280;57143;55.940;37.496;2023-03-25T02:44:41;93495.19;;;5.89;100.00
69848;BME280;57143;55.940;37.496;2023-03-25T02:47:15;93498.63;;;6.02;100.00
69848;BME280;57143;55.940;37.496;2023-03-25T02:49:47;93511.28;;;6.01;100.00
69848;BME280;57143;55.940;37.496;2023-03-25T02:52:17;93487.66;;;6.07;100.00
69848;BME280;57143;55.940;37.496;2023-03-25T02:54:49;93452.31;;;5.80;100.00
69848;BME280;57143;55.940;37.496;2023-03-25T02:57:19;93444.38;;;5.96;100.00
69848;BME280;57143;55.940;37.496;2023-03-25T02:59:49;93465.31;;;6.18;100.00
69848;BME280;57143;55.940;37.496;2023-03-25T03:02:20;93462.41;;;6.23;100.00
69848;BME280;57143;55.940;37.496;2023-03-25T03:04:50;93451.75;;;6.27;100.00
69848;BME280;57143;55.940;37.496;2023-03-25T03:07:22;93461.59;;;6.35;100.00
69848;BME280;57143;55.940;37.496;2023-03-25T03:09:57;93488.97;;;6.40;100.00
69848;BME280;57143;55.940;37.496;2023-03-25T03:12:38;93477.22;;;6.45;100.00
69848;BME280;57143;55.940;37.496;2023-03-25T03:15:19;93436.31;;;6.24;100.00
69848;BME280;57143;55.940;37.496;2023-03-25T03:18:06;93403.34;;;5.83;100.00
69848;BME280;57143;55.940;37.496;2023-03-25T03:20:37;93433.38;;;6.01;100.00
69848;BME280;57143;55.940;37.496;2023-03-25T03:23:11;93521.63;;;6.54;100.00
69848;BME280;57143;55.940;37.496;2023-03-25T03:25:47;93533.50;;;6.53;100.00
69848;BME280;57143;55.940;37.496;2023-03-25T03:28:22;93516.53;;;6.37;100.00
69848;BME280;57143;55.940;37.496;2023-03-25T03:30:54;93560.50;;;6.57;100.00
69848;BME280;57143;55.940;37.496;2023-03-25T03:33:26;93583.88;;;6.68;100.00
69848;BME280;57143;55.940;37.496;2023-03-25T03:36:05;93510.66;;;6.20;100.00
69848;BME280;57143;55.940;37.496;2023-03-25T03:38:36;93596.34;;;6.61;100.00
69848;BME280;57143;55.940;37.496;2023-03-25T03:41:08;93627.53;;;6.77;100.00
69848;BME280;57143;55.940;37.496;2023-03-25T03:43:39;93643.78;;;6.81;100.00
69848;BME280;57143;55.940;37.496;2023-03-25T03:46:12;93640.09;;;6.73;100.00
69848;BME280;57143;55.940;37.496;2023-03-25T03:48:44;93684.69;;;6.86;100.00
69848;BME280;57143;55.940;37.496;2023-03-25T03:51:16;93628.50;;;6.57;100.00
69848;BME280;57143;55.940;37.496;2023-03-25T03:53:50;93680.84;;;6.87;100.00
69848;BME280;57143;55.940;37.496;2023-03-25T03:56:25;93701.88;;;6.97;100.00
69848;BME280;57143;55.940;37.496;2023-03-25T03:58:57;93716.59;;;7.00;100.00
69848;BME280;57143;55.940;37.496;2023-03-25T04:01:29;93739.31;;;7.02;100.00
69848;BME280;57143;55.940;37.496;2023-03-25T04:04:02;93748.88;;;7.00;100.00
69848;BME280;57143;55.940;37.496;2023-03-25T04:06:33;93766.47;;;6.97;100.00
69848;BME280;57143;55.940;37.496;2023-03-25T04:09:09;93782.59;;;7.10;100.00
69848;BME280;57143;55.940;37.496;2023-03-25T04:11:49;93740.06;;;6.75;100.00
69848;BME280;57143;55.940;37.496;2023-03-25T04:14:18;93786.09;;;6.98;100.00
69848;BME280;57143;55.940;37.496;2023-03-25T04:16:46;93810.06;;;7.15;100.00
69848;BME280;57143;55.940;37.496;2023-03-25T04:19:13;93845.94;;;7.19;100.00
69848;BME280;57143;55.940;37.496;2023-03-25T04:21:43;93816.47;;;7.11;100.00
69848;BME280;57143;55.940;37.496;2023-03-25T04:24:12;93862.84;;;7.20;100.00
69848;BME280;57143;55.940;37.496;2023-03-25T04:26:41;93864.78;;;7.19;100.00
69848;BME280;57143;55.940;37.496;2023-03-25T04:29:11;93885.75;;;7.26;100.00
69848;BME280;57143;55.940;37.496;2023-03-25T04:31:39;93864.56;;;7.12;100.00
69848;BME280;57143;55.940;37.496;2023-03-25T04:34:11;93888.53;;;7.29;100.00
69848;BME280;57143;55.940;37.496;2023-03-25T04:36:39;93896.97;;;7.28;100.00
69848;BME280;57143;55.940;37.496;2023-03-25T04:39:08;93863.41;;;7.13;100.00
69848;BME280;57143;55.940;37.496;2023-03-25T04:41:37;93889.69;;;7.16;100.00
69848;BME280;57143;55.940;37.496;2023-03-25T04:44:04;93930.69;;;7.37;100.00
69848;BME280;57143;55.940;37.496;2023-03-25T04:46:36;93923.53;;;7.29;100.00
69848;BME280;57143;55.940;37.496;2023-03-25T04:49:03;93952.13;;;7.46;100.00
69848;BME280;57143;55.940;37.496;2023-03-25T04:51:39;93927.66;;;7.27;100.00
69848;BME280;57143;55.940;37.496;2023-03-25T04:54:09;93969.19;;;7.50;100.00
69848;BME280;57143;55.940;37.496;2023-03-25T04:56:36;93958.75;;;7.48;100.00
69848;BME280;57143;55.940;37.496;2023-03-25T04:59:05;93945.53;;;7.43;100.00
69848;BME280;57143;55.940;37.496;2023-03-25T05:01:36;93980.16;;;7.69;100.00
69848;BME280;57143;55.940;37.496;2023-03-25T05:04:08;93952.22;;;7.49;100.00
69848;BME280;57143;55.940;37.496;2023-03-25T05:06:38;94004.53;;;7.72;100.00
69848;BME280;57143;55.940;37.496;2023-03-25T05:09:08;94018.56;;;7.78;100.00
69848;BME280;57143;55.940;37.496;2023-03-25T05:11:36;94041.66;;;7.79;100.00
69848;BME280;57143;55.940;37.496;2023-03-25T05:14:07;94049.06;;;7.82;100.00
69848;BME280;57143;55.940;37.496;2023-03-25T05:16:35;94050.31;;;7.84;100.00
69848;BME280;57143;55.940;37.496;2023-03-25T05:19:03;94074.22;;;7.86;100.00
69848;BME280;57143;55.940;37.496;2023-03-25T05:21:31;94095.09;;;7.89;100.00
69848;BME280;57143;55.940;37.496;2023-03-25T05:24:01;94047.63;;;7.60;100.00
69848;BME280;57143;55.940;37.496;2023-03-25T05:26:28;94096.91;;;7.73;100.00
69848;BME280;57143;55.940;37.496;2023-03-25T05:29:00;94099.16;;;7.95;100.00
69848;BME280;57143;55.940;37.496;2023-03-25T05:31:27;94088.16;;;7.88;100.00
69848;BME280;57143;55.940;37.496;2023-03-25T05:33:56;94095.31;;;7.84;100.00
69848;BME280;57143;55.940;37.496;2023-03-25T05:36:23;94112.19;;;7.93;100.00
69848;BME280;57143;55.940;37.496;2023-03-25T05:38:51;94104.88;;;7.81;100.00
69848;BME280;57143;55.940;37.496;2023-03-25T05:41:20;94120.16;;;7.89;100.00
69848;BME280;57143;55.940;37.496;2023-03-25T05:43:58;94119.59;;;7.84;100.00
69848;BME280;57143;55.940;37.496;2023-03-25T05:46:27;94107.91;;;7.80;100.00
69848;BME280;57143;55.940;37.496;2023-03-25T05:48:56;94123.50;;;7.74;100.00
69848;BME280;57143;55.940;37.496;2023-03-25T05:51:25;94096.34;;;7.91;100.00
69848;BME280;57143;55.940;37.496;2023-03-25T05:53:53;94093.19;;;7.89;100.00
69848;BME280;57143;55.940;37.496;2023-03-25T05:56:21;94092.97;;;7.94;100.00
69848;BME280;57143;55.940;37.496;2023-03-25T05:58:50;94056.03;;;7.83;100.00
69848;BME280;57143;55.940;37.496;2023-03-25T06:01:19;94060.97;;;8.05;100.00
69848;BME280;57143;55.940;37.496;2023-03-25T06:03:47;94053.09;;;8.24;100.00
69848;BME280;57143;55.940;37.496;2023-03-25T06:06:16;94074.09;;;8.31;100.00
69848;BME280;57143;55.940;37.496;2023-03-25T06:08:45;94068.56;;;8.39;100.00
69848;BME280;57143;55.940;37.496;2023-03-25T06:11:15;94065.44;;;8.25;100.00
69848;BME280;57143;55.940;37.496;2023-03-25T06:13:44;94068.13;;;8.37;100.00
69848;BME280;57143;55.940;37.496;2023-03-25T06:16:15;94067.50;;;8.28;100.00
69848;BME280;57143;55.940;37.496;2023-03-25T06:18:44;94070.28;;;8.19;100.00
69848;BME280;57143;55.940;37.496;2023-03-25T06:21:17;94062.31;;;8.11;100.00
69848;BME280;57143;55.940;37.496;2023-03-25T06:23:45;94069.72;;;8.14;100.00
69848;BME280;57143;55.940;37.496;2023-03-25T06:26:14;94064.81;;;8.04;100.00
69848;BME280;57143;55.940;37.496;2023-03-25T06:28:41;94063.56;;;8.01;100.00
69848;BME280;57143;55.940;37.496;2023-03-25T06:31:11;94032.25;;;7.97;100.00
69848;BME280;57143;55.940;37.496;2023-03-25T06:33:38;94008.84;;;8.01;100.00
69848;BME280;57143;55.940;37.496;2023-03-25T06:36:07;94027.63;;;7.97;100.00
69848;BME280;57143;55.940;37.496;2023-03-25T06:38:37;93999.09;;;7.96;100.00
69848;BME280;57143;55.940;37.496;2023-03-25T06:41:05;93956.44;;;7.98;100.00
69848;BME280;57143;55.940;37.496;2023-03-25T06:43:33;93909.88;;;7.86;100.00
69848;BME280;57143;55.940;37.496;2023-03-25T06:46:00;93880.31;;;7.89;100.00
69848;BME280;57143;55.940;37.496;2023-03-25T06:48:27;93833.63;;;7.85;100.00
69848;BME280;57143;55.940;37.496;2023-03-25T06:50:55;93750.97;;;7.74;100.00
69848;BME280;57143;55.940;37.496;2023-03-25T06:53:24;93689.25;;;7.69;100.00
69848;BME280;57143;55.940;37.496;2023-03-25T06:55:55;93579.97;;;7.68;100.00
69848;BME280;57143;55.940;37.496;2023-03-25T06:58:22;93475.09;;;7.59;100.00
69848;BME280;57143;55.940;37.496;2023-03-25T07:01:01;93342.66;;;7.73;100.00
69848;BME280;57143;55.940;37.496;2023-03-25T07:03:35;93203.72;;;7.72;100.00
69848;BME280;57143;55.940;37.496;2023-03-25T07:06:04;93049.78;;;7.70;100.00
69848;BME280;57143;55.940;37.496;2023-03-25T07:08:34;92917.91;;;7.77;100.00
69848;BME280;57143;55.940;37.496;2023-03-25T07:11:04;92764.78;;;7.75;100.00
69848;BME280;57143;55.940;37.496;2023-03-25T07:13:32;92658.97;;;7.75;100.00
69848;BME280;57143;55.940;37.496;2023-03-25T07:15:59;92519.28;;;7.73;100.00
69848;BME280;57143;55.940;37.496;2023-03-25T07:18:46;92365.44;;;7.71;100.00
69848;BME280;57143;55.940;37.496;2023-03-25T07:21:13;92235.38;;;7.67;100.00
69848;BME280;57143;55.940;37.496;2023-03-25T07:23:42;92082.31;;;7.66;100.00
69848;BME280;57143;55.940;37.496;2023-03-25T07:26:11;91943.06;;;7.70;100.00
69848;BME280;57143;55.940;37.496;2023-03-25T07:28:55;91791.94;;;7.68;100.00
69848;BME280;57143;55.940;37.496;2023-03-25T07:31:23;91716.19;;;7.59;100.00
69848;BME280;57143;55.940;37.496;2023-03-25T07:33:50;91614.28;;;7.64;100.00
69848;BME280;57143;55.940;37.496;2023-03-25T07:36:17;91483.00;;;7.75;100.00
69848;BME280;57143;55.940;37.496;2023-03-25T07:38:46;91415.84;;;7.61;100.00
69848;BME280;57143;55.940;37.496;2023-03-25T07:41:14;91375.78;;;7.67;100.00
69848;BME280;57143;55.940;37.496;2023-03-25T07:43:42;91314.56;;;7.74;100.00
69848;BME280;57143;55.940;37.496;2023-03-25T07:46:29;91262.97;;;7.79;100.00
69848;BME280;57143;55.940;37.496;2023-03-25T07:51:42;91251.53;;;7.72;100.00
69848;BME280;57143;55.940;37.496;2023-03-25T07:54:09;91215.31;;;7.76;100.00
69848;BME280;57143;55.940;37.496;2023-03-25T07:59:42;91248.69;;;7.82;100.00
69848;BME280;57143;55.940;37.496;2023-03-25T08:02:09;91252.25;;;7.76;100.00
69848;BME280;57143;55.940;37.496;2023-03-25T08:04:37;91206.66;;;7.62;100.00
69848;BME280;57143;55.940;37.496;2023-03-25T08:07:05;91239.47;;;7.83;100.00
69848;BME280;57143;55.940;37.496;2023-03-25T08:09:33;91237.56;;;7.80;100.00
69848;BME280;57143;55.940;37.496;2023-03-25T08:12:01;91246.66;;;7.90;100.00
69848;BME280;57143;55.940;37.496;2023-03-25T08:14:28;91279.38;;;7.88;100.00
69848;BME280;57143;55.940;37.496;2023-03-25T08:16:56;91300.16;;;7.88;100.00
69848;BME280;57143;55.940;37.496;2023-03-25T08:19:40;91308.47;;;8.00;100.00
69848;BME280;57143;55.940;37.496;2023-03-25T08:22:08;91336.09;;;8.04;100.00
69848;BME280;57143;55.940;37.496;2023-03-25T08:24:35;91380.31;;;8.07;100.00
69848;BME280;57143;55.940;37.496;2023-03-25T08:27:04;91422.28;;;8.04;100.00
69848;BME280;57143;55.940;37.496;2023-03-25T08:30:03;91459.91;;;8.11;100.00
69848;BME280;57143;55.940;37.496;2023-03-25T08:32:30;91515.13;;;7.96;100.00
69848;BME280;57143;55.940;37.496;2023-03-25T08:34:57;91551.22;;;8.02;100.00
69848;BME280;57143;55.940;37.496;2023-03-25T08:37:25;91545.81;;;8.02;100.00
69848;BME280;57143;55.940;37.496;2023-03-25T08:39:52;91564.41;;;7.93;100.00
69848;BME280;57143;55.940;37.496;2023-03-25T08:42:22;91598.94;;;8.02;100.00
69848;BME280;57143;55.940;37.496;2023-03-25T08:44:49;91639.59;;;8.18;100.00
69848;BME280;57143;55.940;37.496;2023-03-25T08:47:16;91671.91;;;8.18;100.00
69848;BME280;57143;55.940;37.496;2023-03-25T08:50:00;91713.84;;;8.23;100.00
69848;BME280;57143;55.940;37.496;2023-03-25T08:52:29;91779.63;;;8.32;100.00
69848;BME280;57143;55.940;37.496;2023-03-25T08:54:56;91812.81;;;8.18;100.00
69848;BME280;57143;55.940;37.496;2023-03-25T08:57:25;91896.63;;;8.45;100.00
69848;BME280;57143;55.940;37.496;2023-03-25T08:59:52;91969.41;;;8.42;100.00
69848;BME280;57143;55.940;37.496;2023-03-25T09:02:30;92886.50;;;8.54;100.00
69848;BME280;57143;55.940;37.496;2023-03-25T09:04:57;92899.00;;;8.69;100.00
69848;BME280;57143;55.940;37.496;2023-03-25T09:07:25;92945.25;;;8.68;100.00
69848;BME280;57143;55.940;37.496;2023-03-25T09:09:52;92950.63;;;8.68;100.00
69848;BME280;57143;55.940;37.496;2023-03-25T09:12:19;92985.38;;;8.73;100.00
69848;BME280;57143;55.940;37.496;2023-03-25T09:14:48;93005.94;;;8.88;100.00
69848;BME280;57143;55.940;37.496;2023-03-25T09:17:15;93034.88;;;8.91;100.00
69848;BME280;57143;55.940;37.496;2023-03-25T09:22:28;93124.31;;;8.89;100.00
69848;BME280;57143;55.940;37.496;2023-03-25T09:24:55;93170.56;;;8.88;100.00
69848;BME280;57143;55.940;37.496;2023-03-25T09:27:41;93228.38;;;8.87;100.00
69848;BME280;57143;55.940;37.496;2023-03-25T09:30:27;93271.44;;;8.80;100.00
69848;BME280;57143;55.940;37.496;2023-03-25T09:32:54;93306.81;;;8.75;100.00
69848;BME280;57143;55.940;37.496;2023-03-25T09:35:21;93349.63;;;8.76;100.00
69848;BME280;57143;55.940;37.496;2023-03-25T09:37:48;93389.66;;;8.74;100.00
69848;BME280;57143;55.940;37.496;2023-03-25T09:40:17;93421.25;;;8.74;100.00
69848;BME280;57143;55.940;37.496;2023-03-25T09:43:20;93430.31;;;8.62;100.00
69848;BME280;57143;55.940;37.496;2023-03-25T09:45:52;93442.41;;;8.72;100.00
69848;BME280;57143;55.940;37.496;2023-03-25T09:51:13;93460.06;;;8.88;100.00
69848;BME280;57143;55.940;37.496;2023-03-25T09:54:04;93494.00;;;8.89;100.00
69848;BME280;57143;55.940;37.496;2023-03-25T09:56:58;93478.88;;;9.04;100.00
69848;BME280;57143;55.940;37.496;2023-03-25T09:59:37;93496.84;;;8.96;100.00
69848;BME280;57143;55.940;37.496;2023-03-25T10:02:32;93507.03;;;9.06;100.00
69848;BME280;57143;55.940;37.496;2023-03-25T10:05:13;93539.94;;;9.12;100.00
69848;BME280;57143;55.940;37.496;2023-03-25T10:07:57;93564.94;;;9.09;100.00
69848;BME280;57143;55.940;37.496;2023-03-25T10:10:30;93565.63;;;9.25;100.00
69848;BME280;57143;55.940;37.496;2023-03-25T10:13:06;93579.25;;;9.32;100.00
69848;BME280;57143;55.940;37.496;2023-03-25T10:15:39;93598.66;;;9.38;100.00
69848;BME280;57143;55.940;37.496;2023-03-25T10:18:39;93608.50;;;9.49;100.00
69848;BME280;57143;55.940;37.496;2023-03-25T10:24:02;93618.88;;;9.66;100.00
69848;BME280;57143;55.940;37.496;2023-03-25T10:26:53;93646.66;;;9.67;100.00
69848;BME280;57143;55.940;37.496;2023-03-25T10:29:26;93683.84;;;9.73;100.00
69848;BME280;57143;55.940;37.496;2023-03-25T10:31:59;93693.09;;;9.34;100.00
69848;BME280;57143;55.940;37.496;2023-03-25T10:34:34;93766.63;;;9.62;100.00
69848;BME280;57143;55.940;37.496;2023-03-25T10:37:03;93780.63;;;9.68;100.00
69848;BME280;57143;55.940;37.496;2023-03-25T10:39:32;93839.56;;;9.62;100.00
69848;BME280;57143;55.940;37.496;2023-03-25T10:42:15;93881.88;;;9.55;100.00
69848;BME280;57143;55.940;37.496;2023-03-25T10:44:45;93874.50;;;9.71;100.00
69848;BME280;57143;55.940;37.496;2023-03-25T10:50:01;93902.81;;;9.77;100.00
69848;BME280;57143;55.940;37.496;2023-03-25T10:55:21;93904.94;;;10.02;100.00
69848;BME280;57143;55.940;37.496;2023-03-25T11:00:35;93942.91;;;9.90;100.00
69848;BME280;57143;55.940;37.496;2023-03-25T11:03:07;94047.53;;;9.90;100.00
69848;BME280;57143;55.940;37.496;2023-03-25T11:05:37;94066.91;;;9.92;100.00
69848;BME280;57143;55.940;37.496;2023-03-25T11:08:04;94100.72;;;9.86;100.00
69848;BME280;57143;55.940;37.496;2023-03-25T11:10:33;94113.22;;;9.90;100.00
69848;BME280;57143;55.940;37.496;2023-03-25T11:13:00;94155.75;;;9.78;100.00
69848;BME280;57143;55.940;37.496;2023-03-25T11:15:46;94170.84;;;9.79;100.00
69848;BME280;57143;55.940;37.496;2023-03-25T11:18:19;94173.72;;;9.86;100.00
69848;BME280;57143;55.940;37.496;2023-03-25T11:20:50;94196.66;;;9.76;100.00
69848;BME280;57143;55.940;37.496;2023-03-25T11:23:23;94231.84;;;9.64;100.00
69848;BME280;57143;55.940;37.496;2023-03-25T11:25:53;94266.47;;;9.74;100.00
69848;BME280;57143;55.940;37.496;2023-03-25T11:31:13;94271.84;;;9.59;100.00
69848;BME280;57143;55.940;37.496;2023-03-25T11:33:43;94272.13;;;9.69;100.00
69848;BME280;57143;55.940;37.496;2023-03-25T11:36:26;94273.09;;;9.77;100.00
69848;BME280;57143;55.940;37.496;2023-03-25T11:38:59;94281.50;;;9.87;100.00
69848;BME280;57143;55.940;37.496;2023-03-25T11:41:31;94296.97;;;9.87;100.00
69848;BME280;57143;55.940;37.496;2023-03-25T11:44:00;94281.16;;;9.73;100.00
69848;BME280;57143;55.940;37.496;2023-03-25T11:46:29;94315.00;;;9.83;100.00
69848;BME280;57143;55.940;37.496;2023-03-25T11:48:57;94328.25;;;9.88;100.00
69848;BME280;57143;55.940;37.496;2023-03-25T11:51:35;94328.25;;;9.48;100.00
69848;BME280;57143;55.940;37.496;2023-03-25T11:54:06;94367.09;;;9.68;100.00
69848;BME280;57143;55.940;37.496;2023-03-25T11:59:23;94351.22;;;9.66;100.00
69848;BME280;57143;55.940;37.496;2023-03-25T12:02:00;94385.47;;;9.50;100.00
69848;BME280;57143;55.940;37.496;2023-03-25T12:04:29;94373.47;;;9.75;100.00
69848;BME280;57143;55.940;37.496;2023-03-25T12:07:00;94408.94;;;9.74;100.00
69848;BME280;57143;55.940;37.496;2023-03-25T12:09:28;94398.94;;;9.62;100.00
69848;BME280;57143;55.940;37.496;2023-03-25T12:12:30;94409.97;;;9.69;100.00
69848;BME280;57143;55.940;37.496;2023-03-25T12:15:14;94426.75;;;9.75;100.00
69848;BME280;57143;55.940;37.496;2023-03-25T12:17:53;94424.41;;;9.73;100.00
69848;BME280;57143;55.940;37.496;2023-03-25T12:20:28;94406.75;;;9.40;100.00
69848;BME280;57143;55.940;37.496;2023-03-25T12:23:02;94423.59;;;9.73;100.00
69848;BME280;57143;55.940;37.496;2023-03-25T12:25:41;94425.72;;;9.79;100.00
69848;BME280;57143;55.940;37.496;2023-03-25T12:28:42;94380.28;;;9.97;100.00
69848;BME280;57143;55.940;37.496;2023-03-25T12:31:23;94368.88;;;10.15;100.00
69848;BME280;57143;55.940;37.496;2023-03-25T12:33:59;94401.44;;;10.07;100.00
69848;BME280;57143;55.940;37.496;2023-03-25T12:36:40;94429.50;;;10.14;100.00
69848;BME280;57143;55.940;37.496;2023-03-25T12:39:23;94460.94;;;10.07;100.00
69848;BME280;57143;55.940;37.496;2023-03-25T12:41:58;94521.34;;;9.99;100.00
69848;BME280;57143;55.940;37.496;2023-03-25T12:44:44;94528.78;;;10.02;100.00
69848;BME280;57143;55.940;37.496;2023-03-25T12:47:22;94584.53;;;9.94;100.00
69848;BME280;57143;55.940;37.496;2023-03-25T12:50:22;94543.34;;;9.85;100.00
69848;BME280;57143;55.940;37.496;2023-03-25T12:52:58;94569.13;;;9.83;100.00
69848;BME280;57143;55.940;37.496;2023-03-25T12:55:51;94589.09;;;10.14;100.00
69848;BME280;57143;55.940;37.496;2023-03-25T13:01:17;94607.47;;;10.21;100.00
69848;BME280;57143;55.940;37.496;2023-03-25T13:04:07;94645.22;;;10.17;100.00
69848;BME280;57143;55.940;37.496;2023-03-25T13:06:44;94559.63;;;9.65;100.00
69848;BME280;57143;55.940;37.496;2023-03-25T13:09:20;94676.78;;;10.25;100.00
69848;BME280;57143;55.940;37.496;2023-03-25T13:11:53;94687.94;;;10.24;100.00
69848;BME280;57143;55.940;37.496;2023-03-25T13:14:24;94702.25;;;10.24;100.00
69848;BME280;57143;55.940;37.496;2023-03-25T13:16:56;94719.28;;;10.25;100.00
69848;BME280;57143;55.940;37.496;2023-03-25T13:19:26;94737.88;;;10.26;100.00
69848;BME280;57143;55.940;37.496;2023-03-25T13:22:15;94785.09;;;10.17;100.00
69848;BME280;57143;55.940;37.496;2023-03-25T13:24:47;94811.53;;;10.11;100.00
69848;BME280;57143;55.940;37.496;2023-03-25T13:27:18;94817.22;;;9.98;100.00
69848;BME280;57143;55.940;37.496;2023-03-25T13:30:04;94843.28;;;10.02;100.00
69848;BME280;57143;55.940;37.496;2023-03-25T13:32:41;94858.72;;;10.02;100.00
69848;BME280;57143;55.940;37.496;2023-03-25T13:35:15;94843.84;;;10.08;100.00
69848;BME280;57143;55.940;37.496;2023-03-25T13:37:46;94880.44;;;9.93;100.00
69848;BME280;57143;55.940;37.496;2023-03-25T13:40:24;94864.47;;;10.00;100.00
69848;BME280;57143;55.940;37.496;2023-03-25T13:42:57;94859.31;;;10.07;100.00
69848;BME280;57143;55.940;37.496;2023-03-25T13:45:26;94871.38;;;9.89;100.00
69848;BME280;57143;55.940;37.496;2023-03-25T13:48:03;94893.81;;;10.10;100.00
69848;BME280;57143;55.940;37.496;2023-03-25T13:50:32;94916.75;;;10.04;100.00
69848;BME280;57143;55.940;37.496;2023-03-25T13:53:03;94928.56;;;10.00;100.00
69848;BME280;57143;55.940;37.496;2023-03-25T13:55:36;94931.66;;;9.90;100.00